Airfield :
LOGIN :

Register | Disclaimer

   EN    FR    IT 

 










Legend :    VFR   Marginal VFR   IFR   Intensive IFR   Very Intensive IFR
Visi :
Ceiling :
>= 8 km
>= 3000ft
5 to 8 km
1000 to 3000 ft
1500m to 5 km
500 to 1000 ft
800 to 1500m
200 to 500 ft
< 800m
< 200 ft
Symbols :   Thunderstorms  Fog  Heavy snow  Heavy precipitations  Wind > 20 kt
SIGMETs :     Misc.  Thunderstorms  Icing  Turbulence  Mountain Waves  Volcanic Ashes







- Airport Elevation : 57 ft
- IATA code : KRS


ENCN - Kristiansand Kjevik

CURRENT METAR :
  • 230920Z 28009KT 240V330 CAVOK 26/13 Q1012

EXPIRED METARs :
  • 230850Z 30010KT 240V320 CAVOK 25/13 Q1012
  • 230820Z 28010KT 240V320 CAVOK 24/13 Q1012
  • 230750Z 28007KT 220V340 CAVOK 24/13 Q1011
  • 230720Z 24005KT 200V280 CAVOK 23/12 Q1011
  • 230650Z 26006KT 230V300 CAVOK 21/13 Q1011

TAF TAF ENCN
Valid from the 23 at 09:00 until the 23 at 18:00 UTC


230800Z 2309/2318 26008KT CAVOK
BECMG 2310/2312 20012KT
No reported NOTAMs for that airfield.



MET'MAP, your aeronautical weather chart ! - Copyright ORBIFLY December 2007 - Disclaimer

ORBIFLY MET'MAP TEAM :

Programming & Development : Alexandra Zaïnal
Concept & Development : Baudouin d'Aumeries
Co-Development & Prog : Marc-Olivier Méhu
Technical & hardware support : Manuel Goepfert

Contact : metmap@orbifly.com




SOURCES & CREDITS :

   NOAA